Sahiwal Weather



Sahiwal's Current Weather

Temprature 27.53o clear sky

clear sky

Rain: 0 %

Min Temprature27.53o
Max Temprature27.53o
Humidity49
Wind Speed5.26 m/h
Sun Rise05:08:28
Sun Set19:00:40
Current Time: 24-May-2022 07:32:27
Lat/Lon: 30.6667, 73.1




Sahiwal's Geo Location



Sahiwal's Weather Forecast

Time Overall Temp Min Temp Max Temp Humidity Wind Speed Rain
24-May-2022 (Tue)
08:00:00 clear sky 27.530 27.530 27.530 49 5.26 m/h 0 %
11:00:00 clear sky 29.360 29.360 33.010 44 4.82 m/h 0 %
14:00:00 clear sky 33.260 33.260 36.120 31 4.51 m/h 0 %
17:00:00 clear sky 36.070 36.070 36.070 20 3.98 m/h 0 %
20:00:00 clear sky 31.380 31.380 31.380 26 4.22 m/h 0 %
23:00:00 clear sky 28.890 28.890 28.890 32 2.79 m/h 0 %
25-May-2022 (Wed)
02:00:00 clear sky 27.860 27.860 27.860 33 2.6 m/h 0 %
05:00:00 clear sky 26.940 26.940 26.940 35 3 m/h 0 %
08:00:00 clear sky 33.530 33.530 33.530 22 3.71 m/h 0 %
11:00:00 clear sky 38.460 38.460 38.460 15 1.44 m/h 0 %
14:00:00 clear sky 40.700 40.700 40.700 12 1.99 m/h 0 %
17:00:00 clear sky 40.510 40.510 40.510 11 2.07 m/h 0 %
20:00:00 clear sky 34.880 34.880 34.880 18 3.33 m/h 0 %
23:00:00 clear sky 32.460 32.460 32.460 22 3.38 m/h 0 %
26-May-2022 (Thu)
02:00:00 clear sky 31.440 31.440 31.440 23 2.94 m/h 0 %
05:00:00 clear sky 30.260 30.260 30.260 24 3.2 m/h 0 %
08:00:00 clear sky 36.690 36.690 36.690 16 4.23 m/h 0 %
11:00:00 clear sky 42.200 42.200 42.200 11 3.57 m/h 0 %
14:00:00 clear sky 44.820 44.820 44.820 9 2.46 m/h 0 %
17:00:00 clear sky 44.850 44.850 44.850 8 0.66 m/h 0 %
20:00:00 clear sky 37.890 37.890 37.890 13 4.16 m/h 0 %
23:00:00 clear sky 34.990 34.990 34.990 18 3.79 m/h 0 %
27-May-2022 (Fri)
02:00:00 clear sky 33.720 33.720 33.720 19 3.95 m/h 0 %
05:00:00 clear sky 31.850 31.850 31.850 22 3.58 m/h 0 %
08:00:00 clear sky 36.190 36.190 36.190 32 6.15 m/h 0 %
11:00:00 clear sky 41.840 41.840 41.840 20 3.65 m/h 0 %
14:00:00 clear sky 45.680 45.680 45.680 13 3.11 m/h 0 %
17:00:00 clear sky 46.380 46.380 46.380 9 1.97 m/h 0 %
20:00:00 clear sky 39.970 39.970 39.970 15 3.99 m/h 0 %
23:00:00 clear sky 36.860 36.860 36.860 17 4.34 m/h 0 %
28-May-2022 (Sat)
02:00:00 clear sky 34.830 34.830 34.830 20 4.43 m/h 0 %
05:00:00 clear sky 32.750 32.750 32.750 15 5.7 m/h 0 %
08:00:00 clear sky 38.100 38.100 38.100 16 5.96 m/h 0 %
11:00:00 clear sky 44.180 44.180 44.180 7 6.18 m/h 0 %
14:00:00 clear sky 47.470 47.470 47.470 3 5.47 m/h 0 %
17:00:00 clear sky 46.890 46.890 46.890 2 4.24 m/h 0 %
20:00:00 clear sky 39.340 39.340 39.340 4 4.21 m/h 0 %
23:00:00 clear sky 36.170 36.170 36.170 4 3.85 m/h 0 %
29-May-2022 (Sun)
02:00:00 clear sky 32.270 32.270 32.270 7 3.33 m/h 0 %
05:00:00 clear sky 29.350 29.350 29.350 11 3.19 m/h 0 %

Famous Cities (61)